<?xml version="1.0" encoding="UTF-8" standalone="no" ?>
<gpx xmlns="http://www.topografix.com/GPX/1/1" xmlns:xsi="http://www.w3.org/2001/XMLSchema-instance" xsi:schemaLocation="http://www.topografix.com/GPX/1/1 http://www.topografix.com/GPX/1/1/gpx.xsd" version="1.1" creator="VisuGPX - https://www.visugpx.com">
  <metadata>
    <name>Dent du Villard</name>
    <desc><![CDATA[Dent du Villard depuis le Lac de la Rosière]]></desc>
  </metadata>
  <trk>
    <name><![CDATA[2016-07-13 08:50]]></name>
    <desc><![CDATA[<p>Heure de départ: 07/13/2016 08:50</p><p>Heure d'arrivée: 07/13/2016 12:23</p><p>Distance: 10,6 km (03:33)</p><p>Temps déplacement: 02:48</p><p>Vitesse moyenne: 2,97 km/h</p><p>Vitesse moyenne mouv.: 3,77 km/h</p><p>Vitesse Max.: 15,93km/h</p><p>Altitude minimale: 1507 m</p><p>Altitude maximale: 2287 m</p><p>Vitesse de montée: 541,4 m/h</p><p>Vitesse de descente: -476,8 m/h</p><p>Gain d'altitude: 856 m</p><p>Perte d'altitude: -847 m</p><p>Temps de montée: 01:34</p><p>Temps de descente: 01:46</p><hr align="center" width="480" style="height: 2px; width: 517px"/>]]></desc>
    <trkseg>
      <trkpt lat="45.40922" lon="6.66737">
        <ele>1536.53</ele>
        <time>2016-07-13T06:50:26Z</time>
      </trkpt>
      <trkpt lat="45.4094" lon="6.66737">
        <ele>1533.58</ele>
        <time>2016-07-13T06:50:48Z</time>
      </trkpt>
      <trkpt lat="45.4095" lon="6.66713">
        <ele>1534.73</ele>
        <time>2016-07-13T06:50:58Z</time>
      </trkpt>
      <trkpt lat="45.40958" lon="6.66689">
        <ele>1535.49</ele>
        <time>2016-07-13T06:51:08Z</time>
      </trkpt>
      <trkpt lat="45.40975" lon="6.66701">
        <ele>1535.77</ele>
        <time>2016-07-13T06:51:14Z</time>
      </trkpt>
      <trkpt lat="45.40992" lon="6.6669">
        <ele>1522</ele>
        <time>2016-07-13T06:51:27Z</time>
      </trkpt>
      <trkpt lat="45.41011" lon="6.66695">
        <ele>1515.88</ele>
        <time>2016-07-13T06:51:44Z</time>
      </trkpt>
      <trkpt lat="45.41031" lon="6.66696">
        <ele>1512.86</ele>
        <time>2016-07-13T06:51:58Z</time>
      </trkpt>
      <trkpt lat="45.41049" lon="6.66695">
        <ele>1508.87</ele>
        <time>2016-07-13T06:52:10Z</time>
      </trkpt>
      <trkpt lat="45.41069" lon="6.66698">
        <ele>1514.82</ele>
        <time>2016-07-13T06:52:27Z</time>
      </trkpt>
      <trkpt lat="45.4109" lon="6.66704">
        <ele>1509.72</ele>
        <time>2016-07-13T06:52:45Z</time>
      </trkpt>
      <trkpt lat="45.41109" lon="6.66713">
        <ele>1507.66</ele>
        <time>2016-07-13T06:52:56Z</time>
      </trkpt>
      <trkpt lat="45.4112" lon="6.66737">
        <ele>1516.73</ele>
        <time>2016-07-13T06:53:26Z</time>
      </trkpt>
      <trkpt lat="45.41132" lon="6.66758">
        <ele>1519.76</ele>
        <time>2016-07-13T06:53:51Z</time>
      </trkpt>
      <trkpt lat="45.41152" lon="6.6675">
        <ele>1521.53</ele>
        <time>2016-07-13T06:54:17Z</time>
      </trkpt>
      <trkpt lat="45.41171" lon="6.66736">
        <ele>1507.46</ele>
        <time>2016-07-13T06:54:27Z</time>
      </trkpt>
      <trkpt lat="45.41189" lon="6.66745">
        <ele>1511.32</ele>
        <time>2016-07-13T06:54:54Z</time>
      </trkpt>
      <trkpt lat="45.41195" lon="6.66718">
        <ele>1519.85</ele>
        <time>2016-07-13T06:55:15Z</time>
      </trkpt>
      <trkpt lat="45.41209" lon="6.66742">
        <ele>1522.72</ele>
        <time>2016-07-13T06:55:26Z</time>
      </trkpt>
      <trkpt lat="45.41227" lon="6.66733">
        <ele>1521.93</ele>
        <time>2016-07-13T06:55:59Z</time>
      </trkpt>
      <trkpt lat="45.41244" lon="6.66751">
        <ele>1517.73</ele>
        <time>2016-07-13T06:56:11Z</time>
      </trkpt>
      <trkpt lat="45.41238" lon="6.66725">
        <ele>1532.61</ele>
        <time>2016-07-13T06:56:36Z</time>
      </trkpt>
      <trkpt lat="45.41239" lon="6.66699">
        <ele>1543.5</ele>
        <time>2016-07-13T06:56:47Z</time>
      </trkpt>
      <trkpt lat="45.41266" lon="6.66673">
        <ele>1552.97</ele>
        <time>2016-07-13T06:59:05Z</time>
      </trkpt>
      <trkpt lat="45.41287" lon="6.66649">
        <ele>1540.12</ele>
        <time>2016-07-13T06:59:08Z</time>
      </trkpt>
      <trkpt lat="45.41302" lon="6.66634">
        <ele>1533.73</ele>
        <time>2016-07-13T06:59:19Z</time>
      </trkpt>
      <trkpt lat="45.41318" lon="6.66624">
        <ele>1535.53</ele>
        <time>2016-07-13T06:59:25Z</time>
      </trkpt>
      <trkpt lat="45.41321" lon="6.66597">
        <ele>1540.25</ele>
        <time>2016-07-13T06:59:58Z</time>
      </trkpt>
      <trkpt lat="45.41327" lon="6.66623">
        <ele>1546.32</ele>
        <time>2016-07-13T07:00:08Z</time>
      </trkpt>
      <trkpt lat="45.41324" lon="6.66597">
        <ele>1552.32</ele>
        <time>2016-07-13T07:00:20Z</time>
      </trkpt>
      <trkpt lat="45.41335" lon="6.66574">
        <ele>1581.14</ele>
        <time>2016-07-13T07:00:41Z</time>
      </trkpt>
      <trkpt lat="45.41352" lon="6.66559">
        <ele>1595.03</ele>
        <time>2016-07-13T07:01:07Z</time>
      </trkpt>
      <trkpt lat="45.41379" lon="6.66563">
        <ele>1595.53</ele>
        <time>2016-07-13T07:01:15Z</time>
      </trkpt>
      <trkpt lat="45.41364" lon="6.66578">
        <ele>1604.37</ele>
        <time>2016-07-13T07:01:41Z</time>
      </trkpt>
      <trkpt lat="45.41383" lon="6.66582">
        <ele>1606.81</ele>
        <time>2016-07-13T07:01:58Z</time>
      </trkpt>
      <trkpt lat="45.41379" lon="6.66557">
        <ele>1628.23</ele>
        <time>2016-07-13T07:02:15Z</time>
      </trkpt>
      <trkpt lat="45.41397" lon="6.66542">
        <ele>1630.58</ele>
        <time>2016-07-13T07:02:42Z</time>
      </trkpt>
      <trkpt lat="45.41418" lon="6.66548">
        <ele>1631.53</ele>
        <time>2016-07-13T07:02:53Z</time>
      </trkpt>
      <trkpt lat="45.41436" lon="6.66559">
        <ele>1637.62</ele>
        <time>2016-07-13T07:03:29Z</time>
      </trkpt>
      <trkpt lat="45.41455" lon="6.66559">
        <ele>1637.72</ele>
        <time>2016-07-13T07:04:02Z</time>
      </trkpt>
      <trkpt lat="45.41466" lon="6.66535">
        <ele>1649.46</ele>
        <time>2016-07-13T07:04:13Z</time>
      </trkpt>
      <trkpt lat="45.41484" lon="6.66541">
        <ele>1650.56</ele>
        <time>2016-07-13T07:06:33Z</time>
      </trkpt>
      <trkpt lat="45.41501" lon="6.66522">
        <ele>1643.53</ele>
        <time>2016-07-13T07:06:43Z</time>
      </trkpt>
      <trkpt lat="45.4152" lon="6.66527">
        <ele>1649.14</ele>
        <time>2016-07-13T07:06:55Z</time>
      </trkpt>
      <trkpt lat="45.41539" lon="6.66525">
        <ele>1660.32</ele>
        <time>2016-07-13T07:07:20Z</time>
      </trkpt>
      <trkpt lat="45.41557" lon="6.66517">
        <ele>1651.08</ele>
        <time>2016-07-13T07:07:42Z</time>
      </trkpt>
      <trkpt lat="45.41578" lon="6.66516">
        <ele>1657.34</ele>
        <time>2016-07-13T07:07:59Z</time>
      </trkpt>
      <trkpt lat="45.41596" lon="6.66531">
        <ele>1662.54</ele>
        <time>2016-07-13T07:08:15Z</time>
      </trkpt>
      <trkpt lat="45.41602" lon="6.66507">
        <ele>1666.56</ele>
        <time>2016-07-13T07:08:40Z</time>
      </trkpt>
      <trkpt lat="45.41614" lon="6.66482">
        <ele>1670.09</ele>
        <time>2016-07-13T07:09:01Z</time>
      </trkpt>
      <trkpt lat="45.41627" lon="6.66503">
        <ele>1671.88</ele>
        <time>2016-07-13T07:09:54Z</time>
      </trkpt>
      <trkpt lat="45.41621" lon="6.66536">
        <ele>1678.29</ele>
        <time>2016-07-13T07:09:58Z</time>
      </trkpt>
      <trkpt lat="45.41629" lon="6.66559">
        <ele>1684.17</ele>
        <time>2016-07-13T07:10:56Z</time>
      </trkpt>
      <trkpt lat="45.41613" lon="6.6657">
        <ele>1683.08</ele>
        <time>2016-07-13T07:11:10Z</time>
      </trkpt>
      <trkpt lat="45.41599" lon="6.6659">
        <ele>1692.57</ele>
        <time>2016-07-13T07:11:26Z</time>
      </trkpt>
      <trkpt lat="45.41597" lon="6.66617">
        <ele>1686.77</ele>
        <time>2016-07-13T07:11:48Z</time>
      </trkpt>
      <trkpt lat="45.41594" lon="6.66646">
        <ele>1693.14</ele>
        <time>2016-07-13T07:12:31Z</time>
      </trkpt>
      <trkpt lat="45.41582" lon="6.66665">
        <ele>1702.69</ele>
        <time>2016-07-13T07:12:55Z</time>
      </trkpt>
      <trkpt lat="45.41565" lon="6.66658">
        <ele>1708.48</ele>
        <time>2016-07-13T07:13:09Z</time>
      </trkpt>
      <trkpt lat="45.41566" lon="6.66684">
        <ele>1709.59</ele>
        <time>2016-07-13T07:13:30Z</time>
      </trkpt>
      <trkpt lat="45.41554" lon="6.66709">
        <ele>1712.08</ele>
        <time>2016-07-13T07:13:56Z</time>
      </trkpt>
      <trkpt lat="45.41535" lon="6.66715">
        <ele>1714.55</ele>
        <time>2016-07-13T07:14:42Z</time>
      </trkpt>
      <trkpt lat="45.41526" lon="6.66738">
        <ele>1714.74</ele>
        <time>2016-07-13T07:15:08Z</time>
      </trkpt>
      <trkpt lat="45.41508" lon="6.66749">
        <ele>1726.73</ele>
        <time>2016-07-13T07:15:21Z</time>
      </trkpt>
      <trkpt lat="45.41501" lon="6.66776">
        <ele>1723.93</ele>
        <time>2016-07-13T07:15:39Z</time>
      </trkpt>
      <trkpt lat="45.41489" lon="6.66797">
        <ele>1735.64</ele>
        <time>2016-07-13T07:16:08Z</time>
      </trkpt>
      <trkpt lat="45.41476" lon="6.66815">
        <ele>1742.53</ele>
        <time>2016-07-13T07:17:09Z</time>
      </trkpt>
      <trkpt lat="45.41474" lon="6.6684">
        <ele>1742.53</ele>
        <time>2016-07-13T07:17:33Z</time>
      </trkpt>
      <trkpt lat="45.41471" lon="6.66867">
        <ele>1743.3</ele>
        <time>2016-07-13T07:18:02Z</time>
      </trkpt>
      <trkpt lat="45.41455" lon="6.66885">
        <ele>1748.92</ele>
        <time>2016-07-13T07:18:46Z</time>
      </trkpt>
      <trkpt lat="45.41437" lon="6.66885">
        <ele>1744.56</ele>
        <time>2016-07-13T07:19:10Z</time>
      </trkpt>
      <trkpt lat="45.41421" lon="6.66901">
        <ele>1744.29</ele>
        <time>2016-07-13T07:19:40Z</time>
      </trkpt>
      <trkpt lat="45.41404" lon="6.66908">
        <ele>1753.56</ele>
        <time>2016-07-13T07:20:03Z</time>
      </trkpt>
      <trkpt lat="45.41399" lon="6.66933">
        <ele>1748.84</ele>
        <time>2016-07-13T07:20:13Z</time>
      </trkpt>
      <trkpt lat="45.41388" lon="6.66955">
        <ele>1749.53</ele>
        <time>2016-07-13T07:20:42Z</time>
      </trkpt>
      <trkpt lat="45.4137" lon="6.66954">
        <ele>1764.13</ele>
        <time>2016-07-13T07:22:20Z</time>
      </trkpt>
      <trkpt lat="45.41361" lon="6.66979">
        <ele>1765.04</ele>
        <time>2016-07-13T07:22:35Z</time>
      </trkpt>
      <trkpt lat="45.41355" lon="6.67004">
        <ele>1764.69</ele>
        <time>2016-07-13T07:22:50Z</time>
      </trkpt>
      <trkpt lat="45.41345" lon="6.67031">
        <ele>1762.73</ele>
        <time>2016-07-13T07:23:08Z</time>
      </trkpt>
      <trkpt lat="45.41361" lon="6.67018">
        <ele>1771.48</ele>
        <time>2016-07-13T07:25:16Z</time>
      </trkpt>
      <trkpt lat="45.41373" lon="6.66999">
        <ele>1782.72</ele>
        <time>2016-07-13T07:25:28Z</time>
      </trkpt>
      <trkpt lat="45.4139" lon="6.67006">
        <ele>1778.53</ele>
        <time>2016-07-13T07:25:44Z</time>
      </trkpt>
      <trkpt lat="45.41408" lon="6.66995">
        <ele>1786.06</ele>
        <time>2016-07-13T07:25:55Z</time>
      </trkpt>
      <trkpt lat="45.41423" lon="6.6698">
        <ele>1785.4</ele>
        <time>2016-07-13T07:26:09Z</time>
      </trkpt>
      <trkpt lat="45.41425" lon="6.66952">
        <ele>1797.08</ele>
        <time>2016-07-13T07:26:22Z</time>
      </trkpt>
      <trkpt lat="45.41441" lon="6.66939">
        <ele>1800.29</ele>
        <time>2016-07-13T07:26:46Z</time>
      </trkpt>
      <trkpt lat="45.41458" lon="6.66952">
        <ele>1797.93</ele>
        <time>2016-07-13T07:27:10Z</time>
      </trkpt>
      <trkpt lat="45.41474" lon="6.66963">
        <ele>1793.48</ele>
        <time>2016-07-13T07:27:24Z</time>
      </trkpt>
      <trkpt lat="45.41482" lon="6.66988">
        <ele>1802.04</ele>
        <time>2016-07-13T07:27:43Z</time>
      </trkpt>
      <trkpt lat="45.41498" lon="6.6697">
        <ele>1810.3</ele>
        <time>2016-07-13T07:28:26Z</time>
      </trkpt>
      <trkpt lat="45.41514" lon="6.66954">
        <ele>1813.88</ele>
        <time>2016-07-13T07:28:56Z</time>
      </trkpt>
      <trkpt lat="45.4153" lon="6.66941">
        <ele>1821.57</ele>
        <time>2016-07-13T07:29:18Z</time>
      </trkpt>
      <trkpt lat="45.41545" lon="6.66924">
        <ele>1821.53</ele>
        <time>2016-07-13T07:29:38Z</time>
      </trkpt>
      <trkpt lat="45.4156" lon="6.6691">
        <ele>1827.53</ele>
        <time>2016-07-13T07:30:08Z</time>
      </trkpt>
      <trkpt lat="45.4158" lon="6.66904">
        <ele>1829.52</ele>
        <time>2016-07-13T07:30:37Z</time>
      </trkpt>
      <trkpt lat="45.41601" lon="6.6691">
        <ele>1832.91</ele>
        <time>2016-07-13T07:30:45Z</time>
      </trkpt>
      <trkpt lat="45.41619" lon="6.66898">
        <ele>1832.56</ele>
        <time>2016-07-13T07:31:07Z</time>
      </trkpt>
      <trkpt lat="45.4164" lon="6.66899">
        <ele>1837.29</ele>
        <time>2016-07-13T07:32:15Z</time>
      </trkpt>
      <trkpt lat="45.4166" lon="6.66902">
        <ele>1842.89</ele>
        <time>2016-07-13T07:32:20Z</time>
      </trkpt>
      <trkpt lat="45.41676" lon="6.66893">
        <ele>1852.53</ele>
        <time>2016-07-13T07:32:31Z</time>
      </trkpt>
      <trkpt lat="45.41694" lon="6.66886">
        <ele>1848.96</ele>
        <time>2016-07-13T07:32:55Z</time>
      </trkpt>
      <trkpt lat="45.41711" lon="6.66873">
        <ele>1851.13</ele>
        <time>2016-07-13T07:33:20Z</time>
      </trkpt>
      <trkpt lat="45.41729" lon="6.66863">
        <ele>1856.74</ele>
        <time>2016-07-13T07:33:38Z</time>
      </trkpt>
      <trkpt lat="45.41743" lon="6.66846">
        <ele>1860.28</ele>
        <time>2016-07-13T07:34:04Z</time>
      </trkpt>
      <trkpt lat="45.41763" lon="6.66844">
        <ele>1858.97</ele>
        <time>2016-07-13T07:34:19Z</time>
      </trkpt>
      <trkpt lat="45.41771" lon="6.66821">
        <ele>1868.52</ele>
        <time>2016-07-13T07:34:38Z</time>
      </trkpt>
      <trkpt lat="45.41789" lon="6.66827">
        <ele>1869.89</ele>
        <time>2016-07-13T07:34:53Z</time>
      </trkpt>
      <trkpt lat="45.41807" lon="6.66814">
        <ele>1874.2</ele>
        <time>2016-07-13T07:35:18Z</time>
      </trkpt>
      <trkpt lat="45.41826" lon="6.66811">
        <ele>1872.61</ele>
        <time>2016-07-13T07:35:33Z</time>
      </trkpt>
      <trkpt lat="45.41836" lon="6.66789">
        <ele>1879.45</ele>
        <time>2016-07-13T07:35:54Z</time>
      </trkpt>
      <trkpt lat="45.41854" lon="6.66782">
        <ele>1884.45</ele>
        <time>2016-07-13T07:36:04Z</time>
      </trkpt>
      <trkpt lat="45.4187" lon="6.66794">
        <ele>1880.58</ele>
        <time>2016-07-13T07:36:20Z</time>
      </trkpt>
      <trkpt lat="45.41889" lon="6.66791">
        <ele>1886.24</ele>
        <time>2016-07-13T07:36:37Z</time>
      </trkpt>
      <trkpt lat="45.41907" lon="6.66784">
        <ele>1889.09</ele>
        <time>2016-07-13T07:37:02Z</time>
      </trkpt>
      <trkpt lat="45.41927" lon="6.66787">
        <ele>1888.73</ele>
        <time>2016-07-13T07:37:24Z</time>
      </trkpt>
      <trkpt lat="45.41913" lon="6.66805">
        <ele>1889.53</ele>
        <time>2016-07-13T07:39:38Z</time>
      </trkpt>
      <trkpt lat="45.41901" lon="6.66832">
        <ele>1892.29</ele>
        <time>2016-07-13T07:39:48Z</time>
      </trkpt>
      <trkpt lat="45.41883" lon="6.66828">
        <ele>1891.76</ele>
        <time>2016-07-13T07:40:00Z</time>
      </trkpt>
      <trkpt lat="45.41865" lon="6.66834">
        <ele>1891.35</ele>
        <time>2016-07-13T07:40:19Z</time>
      </trkpt>
      <trkpt lat="45.41851" lon="6.66853">
        <ele>1893.92</ele>
        <time>2016-07-13T07:41:06Z</time>
      </trkpt>
      <trkpt lat="45.41831" lon="6.66867">
        <ele>1908.45</ele>
        <time>2016-07-13T07:41:41Z</time>
      </trkpt>
      <trkpt lat="45.41815" lon="6.66885">
        <ele>1913.24</ele>
        <time>2016-07-13T07:41:48Z</time>
      </trkpt>
      <trkpt lat="45.41807" lon="6.66909">
        <ele>1913.81</ele>
        <time>2016-07-13T07:42:01Z</time>
      </trkpt>
      <trkpt lat="45.41803" lon="6.66935">
        <ele>1918.69</ele>
        <time>2016-07-13T07:42:20Z</time>
      </trkpt>
      <trkpt lat="45.41787" lon="6.66951">
        <ele>1914.99</ele>
        <time>2016-07-13T07:43:16Z</time>
      </trkpt>
      <trkpt lat="45.41781" lon="6.66979">
        <ele>1904.53</ele>
        <time>2016-07-13T07:43:44Z</time>
      </trkpt>
      <trkpt lat="45.41771" lon="6.67002">
        <ele>1902.54</ele>
        <time>2016-07-13T07:43:52Z</time>
      </trkpt>
      <trkpt lat="45.41762" lon="6.67024">
        <ele>1910.56</ele>
        <time>2016-07-13T07:44:02Z</time>
      </trkpt>
      <trkpt lat="45.41757" lon="6.67052">
        <ele>1910.93</ele>
        <time>2016-07-13T07:44:12Z</time>
      </trkpt>
      <trkpt lat="45.41754" lon="6.67078">
        <ele>1917.5</ele>
        <time>2016-07-13T07:44:27Z</time>
      </trkpt>
      <trkpt lat="45.41772" lon="6.67089">
        <ele>1916.33</ele>
        <time>2016-07-13T07:44:41Z</time>
      </trkpt>
      <trkpt lat="45.41749" lon="6.67091">
        <ele>1926.89</ele>
        <time>2016-07-13T07:44:55Z</time>
      </trkpt>
      <trkpt lat="45.41731" lon="6.67088">
        <ele>1936.48</ele>
        <time>2016-07-13T07:45:24Z</time>
      </trkpt>
      <trkpt lat="45.41712" lon="6.67089">
        <ele>1936.33</ele>
        <time>2016-07-13T07:45:41Z</time>
      </trkpt>
      <trkpt lat="45.41698" lon="6.67106">
        <ele>1947.12</ele>
        <time>2016-07-13T07:45:58Z</time>
      </trkpt>
      <trkpt lat="45.41688" lon="6.67128">
        <ele>1951.77</ele>
        <time>2016-07-13T07:46:11Z</time>
      </trkpt>
      <trkpt lat="45.4167" lon="6.67145">
        <ele>1952.35</ele>
        <time>2016-07-13T07:46:36Z</time>
      </trkpt>
      <trkpt lat="45.41648" lon="6.67155">
        <ele>1951.32</ele>
        <time>2016-07-13T07:49:12Z</time>
      </trkpt>
      <trkpt lat="45.4163" lon="6.67174">
        <ele>1955.09</ele>
        <time>2016-07-13T07:49:22Z</time>
      </trkpt>
      <trkpt lat="45.41617" lon="6.67196">
        <ele>1962.24</ele>
        <time>2016-07-13T07:49:27Z</time>
      </trkpt>
      <trkpt lat="45.4161" lon="6.67228">
        <ele>1957.72</ele>
        <time>2016-07-13T07:49:33Z</time>
      </trkpt>
      <trkpt lat="45.41595" lon="6.67247">
        <ele>1963.61</ele>
        <time>2016-07-13T07:50:10Z</time>
      </trkpt>
      <trkpt lat="45.41594" lon="6.67281">
        <ele>1962.51</ele>
        <time>2016-07-13T07:50:20Z</time>
      </trkpt>
      <trkpt lat="45.41589" lon="6.67308">
        <ele>1963.33</ele>
        <time>2016-07-13T07:50:23Z</time>
      </trkpt>
      <trkpt lat="45.41574" lon="6.67322">
        <ele>1971.13</ele>
        <time>2016-07-13T07:50:33Z</time>
      </trkpt>
      <trkpt lat="45.4155" lon="6.67317">
        <ele>1979.53</ele>
        <time>2016-07-13T07:51:36Z</time>
      </trkpt>
      <trkpt lat="45.41531" lon="6.67327">
        <ele>1977.13</ele>
        <time>2016-07-13T07:51:43Z</time>
      </trkpt>
      <trkpt lat="45.41512" lon="6.67333">
        <ele>1982.13</ele>
        <time>2016-07-13T07:52:14Z</time>
      </trkpt>
      <trkpt lat="45.41499" lon="6.67351">
        <ele>1989.73</ele>
        <time>2016-07-13T07:52:29Z</time>
      </trkpt>
      <trkpt lat="45.41482" lon="6.6734">
        <ele>2006.32</ele>
        <time>2016-07-13T07:52:50Z</time>
      </trkpt>
      <trkpt lat="45.41475" lon="6.67363">
        <ele>2005.16</ele>
        <time>2016-07-13T07:53:00Z</time>
      </trkpt>
      <trkpt lat="45.41462" lon="6.67383">
        <ele>2010.88</ele>
        <time>2016-07-13T07:53:42Z</time>
      </trkpt>
      <trkpt lat="45.41444" lon="6.67384">
        <ele>2022.64</ele>
        <time>2016-07-13T07:54:01Z</time>
      </trkpt>
      <trkpt lat="45.4143" lon="6.67404">
        <ele>2029.33</ele>
        <time>2016-07-13T07:54:23Z</time>
      </trkpt>
      <trkpt lat="45.41423" lon="6.67428">
        <ele>2025.53</ele>
        <time>2016-07-13T07:54:43Z</time>
      </trkpt>
      <trkpt lat="45.41417" lon="6.67454">
        <ele>2027.53</ele>
        <time>2016-07-13T07:55:03Z</time>
      </trkpt>
      <trkpt lat="45.414" lon="6.67468">
        <ele>2028.32</ele>
        <time>2016-07-13T07:55:20Z</time>
      </trkpt>
      <trkpt lat="45.4138" lon="6.67466">
        <ele>2031.36</ele>
        <time>2016-07-13T07:55:35Z</time>
      </trkpt>
      <trkpt lat="45.41363" lon="6.67475">
        <ele>2037.74</ele>
        <time>2016-07-13T07:56:39Z</time>
      </trkpt>
      <trkpt lat="45.41331" lon="6.67532">
        <ele>2053.33</ele>
        <time>2016-07-13T07:58:09Z</time>
      </trkpt>
      <trkpt lat="45.41345" lon="6.67552">
        <ele>2036.87</ele>
        <time>2016-07-13T07:58:14Z</time>
      </trkpt>
      <trkpt lat="45.4135" lon="6.67526">
        <ele>2050.99</ele>
        <time>2016-07-13T08:00:27Z</time>
      </trkpt>
      <trkpt lat="45.41364" lon="6.6751">
        <ele>2056.28</ele>
        <time>2016-07-13T08:00:39Z</time>
      </trkpt>
      <trkpt lat="45.41383" lon="6.67507">
        <ele>2065.39</ele>
        <time>2016-07-13T08:01:17Z</time>
      </trkpt>
      <trkpt lat="45.41402" lon="6.67503">
        <ele>2068.1</ele>
        <time>2016-07-13T08:01:22Z</time>
      </trkpt>
      <trkpt lat="45.4142" lon="6.67493">
        <ele>2069.49</ele>
        <time>2016-07-13T08:01:39Z</time>
      </trkpt>
      <trkpt lat="45.41439" lon="6.6749">
        <ele>2070.52</ele>
        <time>2016-07-13T08:01:58Z</time>
      </trkpt>
      <trkpt lat="45.41458" lon="6.67491">
        <ele>2074.33</ele>
        <time>2016-07-13T08:02:17Z</time>
      </trkpt>
      <trkpt lat="45.41474" lon="6.67478">
        <ele>2080.52</ele>
        <time>2016-07-13T08:02:40Z</time>
      </trkpt>
      <trkpt lat="45.41493" lon="6.67478">
        <ele>2083.49</ele>
        <time>2016-07-13T08:02:58Z</time>
      </trkpt>
      <trkpt lat="45.41512" lon="6.67478">
        <ele>2087.58</ele>
        <time>2016-07-13T08:03:15Z</time>
      </trkpt>
      <trkpt lat="45.41529" lon="6.67464">
        <ele>2093.51</ele>
        <time>2016-07-13T08:03:38Z</time>
      </trkpt>
      <trkpt lat="45.41547" lon="6.67457">
        <ele>2099.52</ele>
        <time>2016-07-13T08:03:52Z</time>
      </trkpt>
      <trkpt lat="45.41565" lon="6.67456">
        <ele>2097.37</ele>
        <time>2016-07-13T08:04:08Z</time>
      </trkpt>
      <trkpt lat="45.41584" lon="6.67464">
        <ele>2101.65</ele>
        <time>2016-07-13T08:04:26Z</time>
      </trkpt>
      <trkpt lat="45.41604" lon="6.67469">
        <ele>2106.53</ele>
        <time>2016-07-13T08:04:52Z</time>
      </trkpt>
      <trkpt lat="45.41622" lon="6.67468">
        <ele>2110.52</ele>
        <time>2016-07-13T08:05:10Z</time>
      </trkpt>
      <trkpt lat="45.4164" lon="6.6746">
        <ele>2114.32</ele>
        <time>2016-07-13T08:05:30Z</time>
      </trkpt>
      <trkpt lat="45.41649" lon="6.67438">
        <ele>2119.36</ele>
        <time>2016-07-13T08:05:53Z</time>
      </trkpt>
      <trkpt lat="45.41668" lon="6.67433">
        <ele>2119.73</ele>
        <time>2016-07-13T08:06:08Z</time>
      </trkpt>
      <trkpt lat="45.41687" lon="6.67431">
        <ele>2123.52</ele>
        <time>2016-07-13T08:06:33Z</time>
      </trkpt>
      <trkpt lat="45.41701" lon="6.67415">
        <ele>2126.26</ele>
        <time>2016-07-13T08:06:51Z</time>
      </trkpt>
      <trkpt lat="45.41719" lon="6.67417">
        <ele>2130.49</ele>
        <time>2016-07-13T08:07:11Z</time>
      </trkpt>
      <trkpt lat="45.41738" lon="6.6742">
        <ele>2133.49</ele>
        <time>2016-07-13T08:07:28Z</time>
      </trkpt>
      <trkpt lat="45.41757" lon="6.67418">
        <ele>2139.58</ele>
        <time>2016-07-13T08:07:55Z</time>
      </trkpt>
      <trkpt lat="45.41775" lon="6.6742">
        <ele>2141.73</ele>
        <time>2016-07-13T08:08:15Z</time>
      </trkpt>
      <trkpt lat="45.41795" lon="6.67423">
        <ele>2139.49</ele>
        <time>2016-07-13T08:08:35Z</time>
      </trkpt>
      <trkpt lat="45.41813" lon="6.67426">
        <ele>2142.48</ele>
        <time>2016-07-13T08:08:55Z</time>
      </trkpt>
      <trkpt lat="45.41797" lon="6.67442">
        <ele>2142.56</ele>
        <time>2016-07-13T08:09:23Z</time>
      </trkpt>
      <trkpt lat="45.4178" lon="6.67453">
        <ele>2145.58</ele>
        <time>2016-07-13T08:09:41Z</time>
      </trkpt>
      <trkpt lat="45.41764" lon="6.67469">
        <ele>2143.53</ele>
        <time>2016-07-13T08:09:57Z</time>
      </trkpt>
      <trkpt lat="45.41746" lon="6.67477">
        <ele>2146.38</ele>
        <time>2016-07-13T08:10:19Z</time>
      </trkpt>
      <trkpt lat="45.41733" lon="6.67498">
        <ele>2150.32</ele>
        <time>2016-07-13T08:10:33Z</time>
      </trkpt>
      <trkpt lat="45.41717" lon="6.67514">
        <ele>2142.33</ele>
        <time>2016-07-13T08:10:51Z</time>
      </trkpt>
      <trkpt lat="45.41705" lon="6.67535">
        <ele>2159.25</ele>
        <time>2016-07-13T08:11:38Z</time>
      </trkpt>
      <trkpt lat="45.41709" lon="6.67561">
        <ele>2159.53</ele>
        <time>2016-07-13T08:11:57Z</time>
      </trkpt>
      <trkpt lat="45.41691" lon="6.6757">
        <ele>2173.32</ele>
        <time>2016-07-13T08:12:15Z</time>
      </trkpt>
      <trkpt lat="45.41676" lon="6.67586">
        <ele>2173.53</ele>
        <time>2016-07-13T08:12:35Z</time>
      </trkpt>
      <trkpt lat="45.41665" lon="6.67607">
        <ele>2180.77</ele>
        <time>2016-07-13T08:12:55Z</time>
      </trkpt>
      <trkpt lat="45.41647" lon="6.67614">
        <ele>2184.68</ele>
        <time>2016-07-13T08:13:31Z</time>
      </trkpt>
      <trkpt lat="45.41632" lon="6.67631">
        <ele>2186.33</ele>
        <time>2016-07-13T08:13:59Z</time>
      </trkpt>
      <trkpt lat="45.41614" lon="6.67629">
        <ele>2190.23</ele>
        <time>2016-07-13T08:14:17Z</time>
      </trkpt>
      <trkpt lat="45.41631" lon="6.6764">
        <ele>2198.93</ele>
        <time>2016-07-13T08:14:53Z</time>
      </trkpt>
      <trkpt lat="45.41649" lon="6.67639">
        <ele>2199.48</ele>
        <time>2016-07-13T08:15:16Z</time>
      </trkpt>
      <trkpt lat="45.41668" lon="6.67641">
        <ele>2204.29</ele>
        <time>2016-07-13T08:15:39Z</time>
      </trkpt>
      <trkpt lat="45.41685" lon="6.67634">
        <ele>2207.56</ele>
        <time>2016-07-13T08:15:57Z</time>
      </trkpt>
      <trkpt lat="45.41703" lon="6.67628">
        <ele>2212.48</ele>
        <time>2016-07-13T08:16:14Z</time>
      </trkpt>
      <trkpt lat="45.41718" lon="6.67613">
        <ele>2219.33</ele>
        <time>2016-07-13T08:16:41Z</time>
      </trkpt>
      <trkpt lat="45.41734" lon="6.676">
        <ele>2219.53</ele>
        <time>2016-07-13T08:17:00Z</time>
      </trkpt>
      <trkpt lat="45.41749" lon="6.67586">
        <ele>2224.49</ele>
        <time>2016-07-13T08:17:22Z</time>
      </trkpt>
      <trkpt lat="45.41767" lon="6.6759">
        <ele>2226.73</ele>
        <time>2016-07-13T08:17:44Z</time>
      </trkpt>
      <trkpt lat="45.41784" lon="6.67581">
        <ele>2229.49</ele>
        <time>2016-07-13T08:18:00Z</time>
      </trkpt>
      <trkpt lat="45.41802" lon="6.6759">
        <ele>2230.53</ele>
        <time>2016-07-13T08:18:18Z</time>
      </trkpt>
      <trkpt lat="45.4182" lon="6.67595">
        <ele>2234.49</ele>
        <time>2016-07-13T08:18:37Z</time>
      </trkpt>
      <trkpt lat="45.41838" lon="6.67594">
        <ele>2241.29</ele>
        <time>2016-07-13T08:18:52Z</time>
      </trkpt>
      <trkpt lat="45.41856" lon="6.67589">
        <ele>2243.56</ele>
        <time>2016-07-13T08:19:36Z</time>
      </trkpt>
      <trkpt lat="45.41874" lon="6.67586">
        <ele>2248.28</ele>
        <time>2016-07-13T08:19:53Z</time>
      </trkpt>
      <trkpt lat="45.41893" lon="6.67585">
        <ele>2251.77</ele>
        <time>2016-07-13T08:20:14Z</time>
      </trkpt>
      <trkpt lat="45.41913" lon="6.67583">
        <ele>2256.32</ele>
        <time>2016-07-13T08:20:36Z</time>
      </trkpt>
      <trkpt lat="45.41931" lon="6.67581">
        <ele>2256.52</ele>
        <time>2016-07-13T08:20:57Z</time>
      </trkpt>
      <trkpt lat="45.4195" lon="6.67576">
        <ele>2262.52</ele>
        <time>2016-07-13T08:21:14Z</time>
      </trkpt>
      <trkpt lat="45.41969" lon="6.67573">
        <ele>2264.53</ele>
        <time>2016-07-13T08:21:33Z</time>
      </trkpt>
      <trkpt lat="45.41985" lon="6.67585">
        <ele>2263.59</ele>
        <time>2016-07-13T08:21:52Z</time>
      </trkpt>
      <trkpt lat="45.42003" lon="6.67583">
        <ele>2263.11</ele>
        <time>2016-07-13T08:22:27Z</time>
      </trkpt>
      <trkpt lat="45.41992" lon="6.67604">
        <ele>2284.49</ele>
        <time>2016-07-13T08:23:36Z</time>
      </trkpt>
      <trkpt lat="45.41996" lon="6.6761">
        <ele>2286.53</ele>
        <time>2016-07-13T08:24:16Z</time>
      </trkpt>
      <trkpt lat="45.41983" lon="6.67614">
        <ele>2287.53</ele>
        <time>2016-07-13T08:25:42Z</time>
      </trkpt>
      <trkpt lat="45.41983" lon="6.67614">
        <ele>2287.53</ele>
        <time>2016-07-13T08:25:52Z</time>
      </trkpt>
      <trkpt lat="45.41998" lon="6.67598">
        <ele>2281.38</ele>
        <time>2016-07-13T08:29:59Z</time>
      </trkpt>
      <trkpt lat="45.42015" lon="6.67587">
        <ele>2269.14</ele>
        <time>2016-07-13T08:30:51Z</time>
      </trkpt>
      <trkpt lat="45.42024" lon="6.67563">
        <ele>2259.75</ele>
        <time>2016-07-13T08:34:06Z</time>
      </trkpt>
      <trkpt lat="45.42006" lon="6.67555">
        <ele>2258.48</ele>
        <time>2016-07-13T08:34:33Z</time>
      </trkpt>
      <trkpt lat="45.41986" lon="6.67555">
        <ele>2260.69</ele>
        <time>2016-07-13T08:34:47Z</time>
      </trkpt>
      <trkpt lat="45.41969" lon="6.67565">
        <ele>2263.78</ele>
        <time>2016-07-13T08:34:58Z</time>
      </trkpt>
      <trkpt lat="45.41986" lon="6.67552">
        <ele>2252.77</ele>
        <time>2016-07-13T08:35:16Z</time>
      </trkpt>
      <trkpt lat="45.41998" lon="6.67533">
        <ele>2243.56</ele>
        <time>2016-07-13T08:36:04Z</time>
      </trkpt>
      <trkpt lat="45.42011" lon="6.67513">
        <ele>2231.82</ele>
        <time>2016-07-13T08:36:23Z</time>
      </trkpt>
      <trkpt lat="45.42027" lon="6.67498">
        <ele>2229.58</ele>
        <time>2016-07-13T08:36:41Z</time>
      </trkpt>
      <trkpt lat="45.42044" lon="6.67508">
        <ele>2228.54</ele>
        <time>2016-07-13T08:37:22Z</time>
      </trkpt>
      <trkpt lat="45.42062" lon="6.67516">
        <ele>2223.53</ele>
        <time>2016-07-13T08:37:35Z</time>
      </trkpt>
      <trkpt lat="45.42073" lon="6.67538">
        <ele>2219.61</ele>
        <time>2016-07-13T08:37:50Z</time>
      </trkpt>
      <trkpt lat="45.42082" lon="6.67562">
        <ele>2218.93</ele>
        <time>2016-07-13T08:38:04Z</time>
      </trkpt>
      <trkpt lat="45.42083" lon="6.67588">
        <ele>2214.34</ele>
        <time>2016-07-13T08:38:22Z</time>
      </trkpt>
      <trkpt lat="45.42081" lon="6.67614">
        <ele>2211.54</ele>
        <time>2016-07-13T08:38:36Z</time>
      </trkpt>
      <trkpt lat="45.42081" lon="6.6764">
        <ele>2212.41</ele>
        <time>2016-07-13T08:38:50Z</time>
      </trkpt>
      <trkpt lat="45.42085" lon="6.67666">
        <ele>2211.54</ele>
        <time>2016-07-13T08:39:05Z</time>
      </trkpt>
      <trkpt lat="45.42102" lon="6.67649">
        <ele>2205.55</ele>
        <time>2016-07-13T08:39:26Z</time>
      </trkpt>
      <trkpt lat="45.42106" lon="6.67624">
        <ele>2206.93</ele>
        <time>2016-07-13T08:39:37Z</time>
      </trkpt>
      <trkpt lat="45.42113" lon="6.67597">
        <ele>2201.72</ele>
        <time>2016-07-13T08:39:50Z</time>
      </trkpt>
      <trkpt lat="45.42117" lon="6.67571">
        <ele>2199.54</ele>
        <time>2016-07-13T08:40:06Z</time>
      </trkpt>
      <trkpt lat="45.42121" lon="6.67545">
        <ele>2199.7</ele>
        <time>2016-07-13T08:40:20Z</time>
      </trkpt>
      <trkpt lat="45.42122" lon="6.6752">
        <ele>2196.78</ele>
        <time>2016-07-13T08:40:32Z</time>
      </trkpt>
      <trkpt lat="45.42127" lon="6.67495">
        <ele>2189.77</ele>
        <time>2016-07-13T08:40:48Z</time>
      </trkpt>
      <trkpt lat="45.42126" lon="6.67467">
        <ele>2182.81</ele>
        <time>2016-07-13T08:41:02Z</time>
      </trkpt>
      <trkpt lat="45.42121" lon="6.67443">
        <ele>2182.53</ele>
        <time>2016-07-13T08:41:21Z</time>
      </trkpt>
      <trkpt lat="45.42123" lon="6.67416">
        <ele>2174.37</ele>
        <time>2016-07-13T08:41:38Z</time>
      </trkpt>
      <trkpt lat="45.42121" lon="6.6739">
        <ele>2179.09</ele>
        <time>2016-07-13T08:41:52Z</time>
      </trkpt>
      <trkpt lat="45.42101" lon="6.6737">
        <ele>2176.25</ele>
        <time>2016-07-13T08:42:11Z</time>
      </trkpt>
      <trkpt lat="45.42096" lon="6.67345">
        <ele>2172.74</ele>
        <time>2016-07-13T08:42:29Z</time>
      </trkpt>
      <trkpt lat="45.42093" lon="6.67319">
        <ele>2173.49</ele>
        <time>2016-07-13T08:42:43Z</time>
      </trkpt>
      <trkpt lat="45.42092" lon="6.67292">
        <ele>2168.9</ele>
        <time>2016-07-13T08:43:03Z</time>
      </trkpt>
      <trkpt lat="45.42088" lon="6.67265">
        <ele>2165.5</ele>
        <time>2016-07-13T08:43:23Z</time>
      </trkpt>
      <trkpt lat="45.42076" lon="6.67246">
        <ele>2162.54</ele>
        <time>2016-07-13T08:43:41Z</time>
      </trkpt>
      <trkpt lat="45.42092" lon="6.67233">
        <ele>2156.57</ele>
        <time>2016-07-13T08:44:34Z</time>
      </trkpt>
      <trkpt lat="45.42111" lon="6.67234">
        <ele>2153.54</ele>
        <time>2016-07-13T08:44:48Z</time>
      </trkpt>
      <trkpt lat="45.42129" lon="6.67229">
        <ele>2150.52</ele>
        <time>2016-07-13T08:45:25Z</time>
      </trkpt>
      <trkpt lat="45.42145" lon="6.67216">
        <ele>2147.78</ele>
        <time>2016-07-13T08:45:49Z</time>
      </trkpt>
      <trkpt lat="45.42158" lon="6.67236">
        <ele>2141.94</ele>
        <time>2016-07-13T08:46:10Z</time>
      </trkpt>
      <trkpt lat="45.42173" lon="6.67253">
        <ele>2138.77</ele>
        <time>2016-07-13T08:46:27Z</time>
      </trkpt>
      <trkpt lat="45.42192" lon="6.67259">
        <ele>2141.33</ele>
        <time>2016-07-13T08:46:44Z</time>
      </trkpt>
      <trkpt lat="45.42204" lon="6.67278">
        <ele>2135.54</ele>
        <time>2016-07-13T08:47:03Z</time>
      </trkpt>
      <trkpt lat="45.42216" lon="6.673">
        <ele>2130.74</ele>
        <time>2016-07-13T08:47:19Z</time>
      </trkpt>
      <trkpt lat="45.42234" lon="6.67309">
        <ele>2127.34</ele>
        <time>2016-07-13T08:47:35Z</time>
      </trkpt>
      <trkpt lat="45.42249" lon="6.67295">
        <ele>2133.55</ele>
        <time>2016-07-13T08:47:53Z</time>
      </trkpt>
      <trkpt lat="45.42267" lon="6.67288">
        <ele>2128.01</ele>
        <time>2016-07-13T08:48:02Z</time>
      </trkpt>
      <trkpt lat="45.42268" lon="6.67314">
        <ele>2124.5</ele>
        <time>2016-07-13T08:48:18Z</time>
      </trkpt>
      <trkpt lat="45.42279" lon="6.67335">
        <ele>2119.55</ele>
        <time>2016-07-13T08:48:34Z</time>
      </trkpt>
      <trkpt lat="45.42286" lon="6.67312">
        <ele>2116.54</ele>
        <time>2016-07-13T08:49:14Z</time>
      </trkpt>
      <trkpt lat="45.42274" lon="6.67291">
        <ele>2113.83</ele>
        <time>2016-07-13T08:49:47Z</time>
      </trkpt>
      <trkpt lat="45.42274" lon="6.67264">
        <ele>2113.57</ele>
        <time>2016-07-13T08:50:04Z</time>
      </trkpt>
      <trkpt lat="45.42263" lon="6.67243">
        <ele>2111.92</ele>
        <time>2016-07-13T08:50:19Z</time>
      </trkpt>
      <trkpt lat="45.42262" lon="6.67216">
        <ele>2123.89</ele>
        <time>2016-07-13T08:51:43Z</time>
      </trkpt>
      <trkpt lat="45.42243" lon="6.67204">
        <ele>2102.98</ele>
        <time>2016-07-13T08:52:13Z</time>
      </trkpt>
      <trkpt lat="45.4223" lon="6.67185">
        <ele>2096.49</ele>
        <time>2016-07-13T08:52:36Z</time>
      </trkpt>
      <trkpt lat="45.42224" lon="6.6716">
        <ele>2094.53</ele>
        <time>2016-07-13T08:52:56Z</time>
      </trkpt>
      <trkpt lat="45.4222" lon="6.67135">
        <ele>2091.49</ele>
        <time>2016-07-13T08:53:24Z</time>
      </trkpt>
      <trkpt lat="45.42206" lon="6.67116">
        <ele>2114.34</ele>
        <time>2016-07-13T08:53:35Z</time>
      </trkpt>
      <trkpt lat="45.4221" lon="6.67091">
        <ele>2093.02</ele>
        <time>2016-07-13T08:53:46Z</time>
      </trkpt>
      <trkpt lat="45.42202" lon="6.67066">
        <ele>2081.53</ele>
        <time>2016-07-13T08:54:03Z</time>
      </trkpt>
      <trkpt lat="45.42188" lon="6.67048">
        <ele>2077.33</ele>
        <time>2016-07-13T08:54:33Z</time>
      </trkpt>
      <trkpt lat="45.42169" lon="6.67045">
        <ele>2078.53</ele>
        <time>2016-07-13T08:54:41Z</time>
      </trkpt>
      <trkpt lat="45.42151" lon="6.67052">
        <ele>2081.53</ele>
        <time>2016-07-13T08:54:52Z</time>
      </trkpt>
      <trkpt lat="45.42139" lon="6.67031">
        <ele>2073.38</ele>
        <time>2016-07-13T08:55:14Z</time>
      </trkpt>
      <trkpt lat="45.42158" lon="6.67031">
        <ele>2061.37</ele>
        <time>2016-07-13T08:55:58Z</time>
      </trkpt>
      <trkpt lat="45.42175" lon="6.67023">
        <ele>2058.5</ele>
        <time>2016-07-13T08:56:13Z</time>
      </trkpt>
      <trkpt lat="45.42193" lon="6.67016">
        <ele>2053.54</ele>
        <time>2016-07-13T08:56:31Z</time>
      </trkpt>
      <trkpt lat="45.4221" lon="6.67008">
        <ele>2054.33</ele>
        <time>2016-07-13T08:56:48Z</time>
      </trkpt>
      <trkpt lat="45.42223" lon="6.67027">
        <ele>2047.74</ele>
        <time>2016-07-13T08:57:04Z</time>
      </trkpt>
      <trkpt lat="45.42235" lon="6.67046">
        <ele>2044.56</ele>
        <time>2016-07-13T08:57:20Z</time>
      </trkpt>
      <trkpt lat="45.42254" lon="6.67043">
        <ele>2045.54</ele>
        <time>2016-07-13T08:57:36Z</time>
      </trkpt>
      <trkpt lat="45.42273" lon="6.6704">
        <ele>2048.72</ele>
        <time>2016-07-13T08:57:54Z</time>
      </trkpt>
      <trkpt lat="45.42299" lon="6.67036">
        <ele>2043.53</ele>
        <time>2016-07-13T08:58:14Z</time>
      </trkpt>
      <trkpt lat="45.42314" lon="6.67051">
        <ele>2042.56</ele>
        <time>2016-07-13T08:58:20Z</time>
      </trkpt>
      <trkpt lat="45.42333" lon="6.67049">
        <ele>2043.37</ele>
        <time>2016-07-13T08:58:30Z</time>
      </trkpt>
      <trkpt lat="45.42321" lon="6.67028">
        <ele>2034.5</ele>
        <time>2016-07-13T08:58:40Z</time>
      </trkpt>
      <trkpt lat="45.42303" lon="6.67023">
        <ele>2020.96</ele>
        <time>2016-07-13T08:59:52Z</time>
      </trkpt>
      <trkpt lat="45.42285" lon="6.67012">
        <ele>2015.55</ele>
        <time>2016-07-13T09:00:04Z</time>
      </trkpt>
      <trkpt lat="45.42271" lon="6.66996">
        <ele>2016.53</ele>
        <time>2016-07-13T09:00:18Z</time>
      </trkpt>
      <trkpt lat="45.42253" lon="6.66987">
        <ele>2018.97</ele>
        <time>2016-07-13T09:00:33Z</time>
      </trkpt>
      <trkpt lat="45.42243" lon="6.66966">
        <ele>2019.37</ele>
        <time>2016-07-13T09:00:43Z</time>
      </trkpt>
      <trkpt lat="45.42227" lon="6.66949">
        <ele>2017.13</ele>
        <time>2016-07-13T09:01:12Z</time>
      </trkpt>
      <trkpt lat="45.42207" lon="6.66946">
        <ele>2013.34</ele>
        <time>2016-07-13T09:01:19Z</time>
      </trkpt>
      <trkpt lat="45.42224" lon="6.66934">
        <ele>1998.57</ele>
        <time>2016-07-13T09:02:10Z</time>
      </trkpt>
      <trkpt lat="45.42242" lon="6.66935">
        <ele>1996.77</ele>
        <time>2016-07-13T09:02:26Z</time>
      </trkpt>
      <trkpt lat="45.4226" lon="6.66945">
        <ele>1995.53</ele>
        <time>2016-07-13T09:02:43Z</time>
      </trkpt>
      <trkpt lat="45.42278" lon="6.66943">
        <ele>1995.53</ele>
        <time>2016-07-13T09:03:01Z</time>
      </trkpt>
      <trkpt lat="45.42295" lon="6.66935">
        <ele>1991.71</ele>
        <time>2016-07-13T09:03:14Z</time>
      </trkpt>
      <trkpt lat="45.4231" lon="6.66951">
        <ele>1990.34</ele>
        <time>2016-07-13T09:03:31Z</time>
      </trkpt>
      <trkpt lat="45.42329" lon="6.66946">
        <ele>1985.77</ele>
        <time>2016-07-13T09:03:50Z</time>
      </trkpt>
      <trkpt lat="45.42347" lon="6.6695">
        <ele>1982.82</ele>
        <time>2016-07-13T09:04:17Z</time>
      </trkpt>
      <trkpt lat="45.42365" lon="6.66952">
        <ele>1977.57</ele>
        <time>2016-07-13T09:04:32Z</time>
      </trkpt>
      <trkpt lat="45.42383" lon="6.66959">
        <ele>1974.33</ele>
        <time>2016-07-13T09:04:52Z</time>
      </trkpt>
      <trkpt lat="45.42368" lon="6.66944">
        <ele>1967.58</ele>
        <time>2016-07-13T09:05:08Z</time>
      </trkpt>
      <trkpt lat="45.42351" lon="6.66936">
        <ele>1969.37</ele>
        <time>2016-07-13T09:05:26Z</time>
      </trkpt>
      <trkpt lat="45.42338" lon="6.66915">
        <ele>1969.52</ele>
        <time>2016-07-13T09:05:39Z</time>
      </trkpt>
      <trkpt lat="45.42321" lon="6.66904">
        <ele>1964.53</ele>
        <time>2016-07-13T09:06:22Z</time>
      </trkpt>
      <trkpt lat="45.42302" lon="6.66901">
        <ele>1966.58</ele>
        <time>2016-07-13T09:06:36Z</time>
      </trkpt>
      <trkpt lat="45.42285" lon="6.66887">
        <ele>1965.53</ele>
        <time>2016-07-13T09:06:53Z</time>
      </trkpt>
      <trkpt lat="45.42303" lon="6.66887">
        <ele>1951.54</ele>
        <time>2016-07-13T09:07:26Z</time>
      </trkpt>
      <trkpt lat="45.42319" lon="6.66871">
        <ele>1948.54</ele>
        <time>2016-07-13T09:07:52Z</time>
      </trkpt>
      <trkpt lat="45.42338" lon="6.66874">
        <ele>1947.17</ele>
        <time>2016-07-13T09:09:15Z</time>
      </trkpt>
      <trkpt lat="45.42356" lon="6.66883">
        <ele>1943.41</ele>
        <time>2016-07-13T09:09:34Z</time>
      </trkpt>
      <trkpt lat="45.42374" lon="6.66882">
        <ele>1945.13</ele>
        <time>2016-07-13T09:09:47Z</time>
      </trkpt>
      <trkpt lat="45.42393" lon="6.66882">
        <ele>1933.01</ele>
        <time>2016-07-13T09:12:16Z</time>
      </trkpt>
      <trkpt lat="45.42412" lon="6.66879">
        <ele>1927.75</ele>
        <time>2016-07-13T09:12:33Z</time>
      </trkpt>
      <trkpt lat="45.42401" lon="6.66857">
        <ele>1927.3</ele>
        <time>2016-07-13T09:13:23Z</time>
      </trkpt>
      <trkpt lat="45.42386" lon="6.66843">
        <ele>1926.49</ele>
        <time>2016-07-13T09:13:40Z</time>
      </trkpt>
      <trkpt lat="45.42403" lon="6.66834">
        <ele>1920.57</ele>
        <time>2016-07-13T09:14:31Z</time>
      </trkpt>
      <trkpt lat="45.4242" lon="6.66846">
        <ele>1913.69</ele>
        <time>2016-07-13T09:14:46Z</time>
      </trkpt>
      <trkpt lat="45.42438" lon="6.66857">
        <ele>1911.67</ele>
        <time>2016-07-13T09:15:05Z</time>
      </trkpt>
      <trkpt lat="45.42425" lon="6.66836">
        <ele>1907.54</ele>
        <time>2016-07-13T09:15:29Z</time>
      </trkpt>
      <trkpt lat="45.42412" lon="6.66817">
        <ele>1906.37</ele>
        <time>2016-07-13T09:15:46Z</time>
      </trkpt>
      <trkpt lat="45.42399" lon="6.66799">
        <ele>1898.69</ele>
        <time>2016-07-13T09:16:08Z</time>
      </trkpt>
      <trkpt lat="45.42387" lon="6.66779">
        <ele>1899.54</ele>
        <time>2016-07-13T09:16:14Z</time>
      </trkpt>
      <trkpt lat="45.42406" lon="6.66788">
        <ele>1889.33</ele>
        <time>2016-07-13T09:17:14Z</time>
      </trkpt>
      <trkpt lat="45.42424" lon="6.66782">
        <ele>1886.63</ele>
        <time>2016-07-13T09:17:34Z</time>
      </trkpt>
      <trkpt lat="45.42441" lon="6.66787">
        <ele>1881.96</ele>
        <time>2016-07-13T09:17:50Z</time>
      </trkpt>
      <trkpt lat="45.42437" lon="6.66762">
        <ele>1876.58</ele>
        <time>2016-07-13T09:18:38Z</time>
      </trkpt>
      <trkpt lat="45.42419" lon="6.66752">
        <ele>1870.57</ele>
        <time>2016-07-13T09:19:51Z</time>
      </trkpt>
      <trkpt lat="45.42401" lon="6.66748">
        <ele>1868.57</ele>
        <time>2016-07-13T09:19:57Z</time>
      </trkpt>
      <trkpt lat="45.42382" lon="6.66737">
        <ele>1864.15</ele>
        <time>2016-07-13T09:20:20Z</time>
      </trkpt>
      <trkpt lat="45.42363" lon="6.66733">
        <ele>1864.95</ele>
        <time>2016-07-13T09:20:35Z</time>
      </trkpt>
      <trkpt lat="45.42347" lon="6.6675">
        <ele>1866.53</ele>
        <time>2016-07-13T09:20:55Z</time>
      </trkpt>
      <trkpt lat="45.42328" lon="6.66746">
        <ele>1863.53</ele>
        <time>2016-07-13T09:21:38Z</time>
      </trkpt>
      <trkpt lat="45.4231" lon="6.66742">
        <ele>1870.53</ele>
        <time>2016-07-13T09:23:06Z</time>
      </trkpt>
      <trkpt lat="45.4229" lon="6.66752">
        <ele>1869.57</ele>
        <time>2016-07-13T09:23:27Z</time>
      </trkpt>
      <trkpt lat="45.42273" lon="6.66762">
        <ele>1865.78</ele>
        <time>2016-07-13T09:25:32Z</time>
      </trkpt>
      <trkpt lat="45.42257" lon="6.66775">
        <ele>1862.57</ele>
        <time>2016-07-13T09:25:39Z</time>
      </trkpt>
      <trkpt lat="45.42238" lon="6.66768">
        <ele>1862.29</ele>
        <time>2016-07-13T09:25:47Z</time>
      </trkpt>
      <trkpt lat="45.42225" lon="6.6675">
        <ele>1862.73</ele>
        <time>2016-07-13T09:25:52Z</time>
      </trkpt>
      <trkpt lat="45.42195" lon="6.66748">
        <ele>1860.53</ele>
        <time>2016-07-13T09:26:39Z</time>
      </trkpt>
      <trkpt lat="45.42203" lon="6.66771">
        <ele>1854.45</ele>
        <time>2016-07-13T09:26:41Z</time>
      </trkpt>
      <trkpt lat="45.42188" lon="6.66756">
        <ele>1862.47</ele>
        <time>2016-07-13T09:27:15Z</time>
      </trkpt>
      <trkpt lat="45.42169" lon="6.66745">
        <ele>1863.56</ele>
        <time>2016-07-13T09:29:29Z</time>
      </trkpt>
      <trkpt lat="45.42149" lon="6.66758">
        <ele>1864.33</ele>
        <time>2016-07-13T09:30:23Z</time>
      </trkpt>
      <trkpt lat="45.42131" lon="6.66749">
        <ele>1867.13</ele>
        <time>2016-07-13T09:30:45Z</time>
      </trkpt>
      <trkpt lat="45.42113" lon="6.66744">
        <ele>1872.6</ele>
        <time>2016-07-13T09:30:57Z</time>
      </trkpt>
      <trkpt lat="45.42095" lon="6.66751">
        <ele>1874.78</ele>
        <time>2016-07-13T09:31:14Z</time>
      </trkpt>
      <trkpt lat="45.42079" lon="6.66765">
        <ele>1876.53</ele>
        <time>2016-07-13T09:31:32Z</time>
      </trkpt>
      <trkpt lat="45.4206" lon="6.66763">
        <ele>1876.38</ele>
        <time>2016-07-13T09:31:40Z</time>
      </trkpt>
      <trkpt lat="45.42042" lon="6.66758">
        <ele>1882.09</ele>
        <time>2016-07-13T09:32:04Z</time>
      </trkpt>
      <trkpt lat="45.42007" lon="6.66762">
        <ele>1869.41</ele>
        <time>2016-07-13T09:32:36Z</time>
      </trkpt>
      <trkpt lat="45.41986" lon="6.66755">
        <ele>1847.11</ele>
        <time>2016-07-13T09:32:37Z</time>
      </trkpt>
      <trkpt lat="45.41989" lon="6.66781">
        <ele>1833.42</ele>
        <time>2016-07-13T09:32:56Z</time>
      </trkpt>
      <trkpt lat="45.41974" lon="6.66763">
        <ele>1840.28</ele>
        <time>2016-07-13T09:33:02Z</time>
      </trkpt>
      <trkpt lat="45.41943" lon="6.66784">
        <ele>1883.93</ele>
        <time>2016-07-13T09:33:44Z</time>
      </trkpt>
      <trkpt lat="45.41923" lon="6.66792">
        <ele>1889.69</ele>
        <time>2016-07-13T09:34:05Z</time>
      </trkpt>
      <trkpt lat="45.41904" lon="6.66787">
        <ele>1889.56</ele>
        <time>2016-07-13T09:34:26Z</time>
      </trkpt>
      <trkpt lat="45.41886" lon="6.66796">
        <ele>1882.56</ele>
        <time>2016-07-13T09:34:47Z</time>
      </trkpt>
      <trkpt lat="45.41867" lon="6.66799">
        <ele>1872.36</ele>
        <time>2016-07-13T09:35:02Z</time>
      </trkpt>
      <trkpt lat="45.41847" lon="6.66799">
        <ele>1874.49</ele>
        <time>2016-07-13T09:35:17Z</time>
      </trkpt>
      <trkpt lat="45.41835" lon="6.66818">
        <ele>1868.53</ele>
        <time>2016-07-13T09:35:32Z</time>
      </trkpt>
      <trkpt lat="45.41817" lon="6.66826">
        <ele>1867.37</ele>
        <time>2016-07-13T09:35:49Z</time>
      </trkpt>
      <trkpt lat="45.418" lon="6.66835">
        <ele>1866.49</ele>
        <time>2016-07-13T09:36:05Z</time>
      </trkpt>
      <trkpt lat="45.41782" lon="6.6685">
        <ele>1861.44</ele>
        <time>2016-07-13T09:36:18Z</time>
      </trkpt>
      <trkpt lat="45.41764" lon="6.66851">
        <ele>1859.25</ele>
        <time>2016-07-13T09:36:37Z</time>
      </trkpt>
      <trkpt lat="45.41745" lon="6.66853">
        <ele>1856.54</ele>
        <time>2016-07-13T09:36:57Z</time>
      </trkpt>
      <trkpt lat="45.41731" lon="6.6687">
        <ele>1848.57</ele>
        <time>2016-07-13T09:37:12Z</time>
      </trkpt>
      <trkpt lat="45.41713" lon="6.66878">
        <ele>1842.3</ele>
        <time>2016-07-13T09:37:34Z</time>
      </trkpt>
      <trkpt lat="45.41698" lon="6.66895">
        <ele>1844.73</ele>
        <time>2016-07-13T09:38:03Z</time>
      </trkpt>
      <trkpt lat="45.41692" lon="6.66919">
        <ele>1835.51</ele>
        <time>2016-07-13T09:38:17Z</time>
      </trkpt>
      <trkpt lat="45.41673" lon="6.6692">
        <ele>1828.3</ele>
        <time>2016-07-13T09:38:44Z</time>
      </trkpt>
      <trkpt lat="45.41655" lon="6.66911">
        <ele>1823.73</ele>
        <time>2016-07-13T09:38:59Z</time>
      </trkpt>
      <trkpt lat="45.41635" lon="6.66911">
        <ele>1818.33</ele>
        <time>2016-07-13T09:39:18Z</time>
      </trkpt>
      <trkpt lat="45.41617" lon="6.66917">
        <ele>1824.52</ele>
        <time>2016-07-13T09:39:42Z</time>
      </trkpt>
      <trkpt lat="45.41601" lon="6.66929">
        <ele>1819.87</ele>
        <time>2016-07-13T09:39:56Z</time>
      </trkpt>
      <trkpt lat="45.41583" lon="6.66922">
        <ele>1818.61</ele>
        <time>2016-07-13T09:40:14Z</time>
      </trkpt>
      <trkpt lat="45.41565" lon="6.66926">
        <ele>1816.38</ele>
        <time>2016-07-13T09:40:29Z</time>
      </trkpt>
      <trkpt lat="45.4155" lon="6.66941">
        <ele>1814.37</ele>
        <time>2016-07-13T09:40:49Z</time>
      </trkpt>
      <trkpt lat="45.41531" lon="6.66946">
        <ele>1815.33</ele>
        <time>2016-07-13T09:41:14Z</time>
      </trkpt>
      <trkpt lat="45.41514" lon="6.66955">
        <ele>1811.53</ele>
        <time>2016-07-13T09:41:31Z</time>
      </trkpt>
      <trkpt lat="45.41501" lon="6.66976">
        <ele>1800.93</ele>
        <time>2016-07-13T09:42:06Z</time>
      </trkpt>
      <trkpt lat="45.41495" lon="6.67001">
        <ele>1797.62</ele>
        <time>2016-07-13T09:42:20Z</time>
      </trkpt>
      <trkpt lat="45.4148" lon="6.66984">
        <ele>1795.95</ele>
        <time>2016-07-13T09:42:38Z</time>
      </trkpt>
      <trkpt lat="45.41467" lon="6.66965">
        <ele>1795.72</ele>
        <time>2016-07-13T09:42:52Z</time>
      </trkpt>
      <trkpt lat="45.41449" lon="6.66957">
        <ele>1791.32</ele>
        <time>2016-07-13T09:43:06Z</time>
      </trkpt>
      <trkpt lat="45.41429" lon="6.66961">
        <ele>1789.77</ele>
        <time>2016-07-13T09:43:20Z</time>
      </trkpt>
      <trkpt lat="45.41412" lon="6.66973">
        <ele>1787.54</ele>
        <time>2016-07-13T09:43:33Z</time>
      </trkpt>
      <trkpt lat="45.41406" lon="6.67002">
        <ele>1786.52</ele>
        <time>2016-07-13T09:43:49Z</time>
      </trkpt>
      <trkpt lat="45.41388" lon="6.67001">
        <ele>1778.17</ele>
        <time>2016-07-13T09:44:12Z</time>
      </trkpt>
      <trkpt lat="45.41369" lon="6.67006">
        <ele>1777.7</ele>
        <time>2016-07-13T09:44:47Z</time>
      </trkpt>
      <trkpt lat="45.41353" lon="6.67021">
        <ele>1776.78</ele>
        <time>2016-07-13T09:45:04Z</time>
      </trkpt>
      <trkpt lat="45.41353" lon="6.66994">
        <ele>1761.53</ele>
        <time>2016-07-13T09:47:46Z</time>
      </trkpt>
      <trkpt lat="45.41356" lon="6.66968">
        <ele>1762.69</ele>
        <time>2016-07-13T09:48:00Z</time>
      </trkpt>
      <trkpt lat="45.41374" lon="6.66969">
        <ele>1766.49</ele>
        <time>2016-07-13T09:48:11Z</time>
      </trkpt>
      <trkpt lat="45.41389" lon="6.66954">
        <ele>1756.54</ele>
        <time>2016-07-13T09:48:30Z</time>
      </trkpt>
      <trkpt lat="45.4139" lon="6.66927">
        <ele>1757.53</ele>
        <time>2016-07-13T09:48:40Z</time>
      </trkpt>
      <trkpt lat="45.41402" lon="6.66907">
        <ele>1757.56</ele>
        <time>2016-07-13T09:48:51Z</time>
      </trkpt>
      <trkpt lat="45.41414" lon="6.66888">
        <ele>1755.41</ele>
        <time>2016-07-13T09:49:17Z</time>
      </trkpt>
      <trkpt lat="45.41432" lon="6.66874">
        <ele>1752.49</ele>
        <time>2016-07-13T09:49:52Z</time>
      </trkpt>
      <trkpt lat="45.41447" lon="6.66887">
        <ele>1749.81</ele>
        <time>2016-07-13T09:49:56Z</time>
      </trkpt>
      <trkpt lat="45.41469" lon="6.66875">
        <ele>1748.34</ele>
        <time>2016-07-13T09:50:03Z</time>
      </trkpt>
      <trkpt lat="45.41465" lon="6.66845">
        <ele>1747.35</ele>
        <time>2016-07-13T09:51:05Z</time>
      </trkpt>
      <trkpt lat="45.41479" lon="6.66825">
        <ele>1732.83</ele>
        <time>2016-07-13T09:51:14Z</time>
      </trkpt>
      <trkpt lat="45.41484" lon="6.66799">
        <ele>1736.41</ele>
        <time>2016-07-13T09:51:24Z</time>
      </trkpt>
      <trkpt lat="45.41497" lon="6.66779">
        <ele>1731.41</ele>
        <time>2016-07-13T09:51:39Z</time>
      </trkpt>
      <trkpt lat="45.41494" lon="6.66754">
        <ele>1727.38</ele>
        <time>2016-07-13T09:51:52Z</time>
      </trkpt>
      <trkpt lat="45.41509" lon="6.66739">
        <ele>1721.93</ele>
        <time>2016-07-13T09:52:06Z</time>
      </trkpt>
      <trkpt lat="45.41523" lon="6.66722">
        <ele>1713.37</ele>
        <time>2016-07-13T09:52:21Z</time>
      </trkpt>
      <trkpt lat="45.41542" lon="6.66715">
        <ele>1710.52</ele>
        <time>2016-07-13T09:52:38Z</time>
      </trkpt>
      <trkpt lat="45.41549" lon="6.66691">
        <ele>1709.5</ele>
        <time>2016-07-13T09:52:53Z</time>
      </trkpt>
      <trkpt lat="45.41558" lon="6.66666">
        <ele>1713.76</ele>
        <time>2016-07-13T09:53:33Z</time>
      </trkpt>
      <trkpt lat="45.41577" lon="6.66658">
        <ele>1709.59</ele>
        <time>2016-07-13T09:53:47Z</time>
      </trkpt>
      <trkpt lat="45.41592" lon="6.66643">
        <ele>1702.49</ele>
        <time>2016-07-13T09:54:14Z</time>
      </trkpt>
      <trkpt lat="45.4159" lon="6.66617">
        <ele>1703.57</ele>
        <time>2016-07-13T09:54:30Z</time>
      </trkpt>
      <trkpt lat="45.41597" lon="6.66592">
        <ele>1700.65</ele>
        <time>2016-07-13T09:54:47Z</time>
      </trkpt>
      <trkpt lat="45.41611" lon="6.66571">
        <ele>1696.33</ele>
        <time>2016-07-13T09:55:06Z</time>
      </trkpt>
      <trkpt lat="45.41628" lon="6.66563">
        <ele>1698.45</ele>
        <time>2016-07-13T09:55:20Z</time>
      </trkpt>
      <trkpt lat="45.41621" lon="6.66538">
        <ele>1687.55</ele>
        <time>2016-07-13T09:55:40Z</time>
      </trkpt>
      <trkpt lat="45.41617" lon="6.66511">
        <ele>1682.89</ele>
        <time>2016-07-13T09:55:54Z</time>
      </trkpt>
      <trkpt lat="45.41621" lon="6.66485">
        <ele>1677.41</ele>
        <time>2016-07-13T09:56:10Z</time>
      </trkpt>
      <trkpt lat="45.41608" lon="6.66505">
        <ele>1677.51</ele>
        <time>2016-07-13T09:56:59Z</time>
      </trkpt>
      <trkpt lat="45.41597" lon="6.66532">
        <ele>1679.13</ele>
        <time>2016-07-13T09:57:22Z</time>
      </trkpt>
      <trkpt lat="45.41579" lon="6.66531">
        <ele>1668.41</ele>
        <time>2016-07-13T09:57:37Z</time>
      </trkpt>
      <trkpt lat="45.41559" lon="6.66531">
        <ele>1666.54</ele>
        <time>2016-07-13T09:57:52Z</time>
      </trkpt>
      <trkpt lat="45.41541" lon="6.66529">
        <ele>1666.58</ele>
        <time>2016-07-13T09:58:08Z</time>
      </trkpt>
      <trkpt lat="45.41522" lon="6.66524">
        <ele>1667.51</ele>
        <time>2016-07-13T09:58:29Z</time>
      </trkpt>
      <trkpt lat="45.41504" lon="6.66524">
        <ele>1655.93</ele>
        <time>2016-07-13T09:58:42Z</time>
      </trkpt>
      <trkpt lat="45.41487" lon="6.66535">
        <ele>1652.95</ele>
        <time>2016-07-13T09:58:59Z</time>
      </trkpt>
      <trkpt lat="45.41468" lon="6.66538">
        <ele>1650.52</ele>
        <time>2016-07-13T09:59:21Z</time>
      </trkpt>
      <trkpt lat="45.41455" lon="6.66558">
        <ele>1644.63</ele>
        <time>2016-07-13T09:59:42Z</time>
      </trkpt>
      <trkpt lat="45.41437" lon="6.66568">
        <ele>1642.03</ele>
        <time>2016-07-13T10:00:13Z</time>
      </trkpt>
      <trkpt lat="45.41422" lon="6.66553">
        <ele>1637.72</ele>
        <time>2016-07-13T10:00:45Z</time>
      </trkpt>
      <trkpt lat="45.41404" lon="6.66551">
        <ele>1631.51</ele>
        <time>2016-07-13T10:01:01Z</time>
      </trkpt>
      <trkpt lat="45.41388" lon="6.66564">
        <ele>1630.48</ele>
        <time>2016-07-13T10:01:31Z</time>
      </trkpt>
      <trkpt lat="45.4137" lon="6.66577">
        <ele>1623.57</ele>
        <time>2016-07-13T10:01:57Z</time>
      </trkpt>
      <trkpt lat="45.41354" lon="6.66564">
        <ele>1616.9</ele>
        <time>2016-07-13T10:02:23Z</time>
      </trkpt>
      <trkpt lat="45.41336" lon="6.66567">
        <ele>1608.74</ele>
        <time>2016-07-13T10:03:20Z</time>
      </trkpt>
      <trkpt lat="45.4132" lon="6.66581">
        <ele>1608.29</ele>
        <time>2016-07-13T10:03:45Z</time>
      </trkpt>
      <trkpt lat="45.41305" lon="6.66599">
        <ele>1599.59</ele>
        <time>2016-07-13T10:04:09Z</time>
      </trkpt>
      <trkpt lat="45.4129" lon="6.66612">
        <ele>1592.74</ele>
        <time>2016-07-13T10:04:27Z</time>
      </trkpt>
      <trkpt lat="45.41292" lon="6.66638">
        <ele>1588.37</ele>
        <time>2016-07-13T10:05:46Z</time>
      </trkpt>
      <trkpt lat="45.41275" lon="6.66646">
        <ele>1591.48</ele>
        <time>2016-07-13T10:05:52Z</time>
      </trkpt>
      <trkpt lat="45.41263" lon="6.66669">
        <ele>1589.93</ele>
        <time>2016-07-13T10:06:22Z</time>
      </trkpt>
      <trkpt lat="45.41255" lon="6.66694">
        <ele>1582.52</ele>
        <time>2016-07-13T10:07:27Z</time>
      </trkpt>
      <trkpt lat="45.4124" lon="6.66708">
        <ele>1577.58</ele>
        <time>2016-07-13T10:08:02Z</time>
      </trkpt>
      <trkpt lat="45.41232" lon="6.66733">
        <ele>1573.58</ele>
        <time>2016-07-13T10:08:20Z</time>
      </trkpt>
      <trkpt lat="45.41214" lon="6.66745">
        <ele>1568.57</ele>
        <time>2016-07-13T10:08:38Z</time>
      </trkpt>
      <trkpt lat="45.41196" lon="6.66746">
        <ele>1571.88</ele>
        <time>2016-07-13T10:08:51Z</time>
      </trkpt>
      <trkpt lat="45.41179" lon="6.66757">
        <ele>1569.32</ele>
        <time>2016-07-13T10:09:22Z</time>
      </trkpt>
      <trkpt lat="45.4116" lon="6.66761">
        <ele>1571.57</ele>
        <time>2016-07-13T10:09:36Z</time>
      </trkpt>
      <trkpt lat="45.41142" lon="6.6676">
        <ele>1568.71</ele>
        <time>2016-07-13T10:09:54Z</time>
      </trkpt>
      <trkpt lat="45.41124" lon="6.66767">
        <ele>1559.69</ele>
        <time>2016-07-13T10:10:12Z</time>
      </trkpt>
      <trkpt lat="45.41107" lon="6.66755">
        <ele>1550.34</ele>
        <time>2016-07-13T10:10:44Z</time>
      </trkpt>
      <trkpt lat="45.41099" lon="6.66731">
        <ele>1543.52</ele>
        <time>2016-07-13T10:11:10Z</time>
      </trkpt>
      <trkpt lat="45.41086" lon="6.66712">
        <ele>1538.33</ele>
        <time>2016-07-13T10:11:35Z</time>
      </trkpt>
      <trkpt lat="45.41076" lon="6.6669">
        <ele>1527.73</ele>
        <time>2016-07-13T10:12:25Z</time>
      </trkpt>
      <trkpt lat="45.41059" lon="6.6668">
        <ele>1529.33</ele>
        <time>2016-07-13T10:12:43Z</time>
      </trkpt>
      <trkpt lat="45.4104" lon="6.66683">
        <ele>1527.55</ele>
        <time>2016-07-13T10:13:04Z</time>
      </trkpt>
      <trkpt lat="45.41023" lon="6.6669">
        <ele>1530.49</ele>
        <time>2016-07-13T10:13:16Z</time>
      </trkpt>
      <trkpt lat="45.41006" lon="6.66702">
        <ele>1532.52</ele>
        <time>2016-07-13T10:13:34Z</time>
      </trkpt>
      <trkpt lat="45.40986" lon="6.66717">
        <ele>1532.97</ele>
        <time>2016-07-13T10:13:48Z</time>
      </trkpt>
      <trkpt lat="45.40968" lon="6.66726">
        <ele>1532.52</ele>
        <time>2016-07-13T10:13:58Z</time>
      </trkpt>
      <trkpt lat="45.40952" lon="6.66738">
        <ele>1532.36</ele>
        <time>2016-07-13T10:14:19Z</time>
      </trkpt>
      <trkpt lat="45.40935" lon="6.66751">
        <ele>1534.53</ele>
        <time>2016-07-13T10:14:37Z</time>
      </trkpt>
      <trkpt lat="45.40918" lon="6.66744">
        <ele>1539.48</ele>
        <time>2016-07-13T10:14:53Z</time>
      </trkpt>
      <trkpt lat="45.409" lon="6.66733">
        <ele>1538.53</ele>
        <time>2016-07-13T10:15:11Z</time>
      </trkpt>
      <trkpt lat="45.40882" lon="6.66733">
        <ele>1538.57</ele>
        <time>2016-07-13T10:15:29Z</time>
      </trkpt>
      <trkpt lat="45.40869" lon="6.66752">
        <ele>1543.53</ele>
        <time>2016-07-13T10:15:47Z</time>
      </trkpt>
      <trkpt lat="45.40854" lon="6.66736">
        <ele>1552.33</ele>
        <time>2016-07-13T10:18:04Z</time>
      </trkpt>
      <trkpt lat="45.40846" lon="6.6676">
        <ele>1543.73</ele>
        <time>2016-07-13T10:22:27Z</time>
      </trkpt>
      <trkpt lat="45.40836" lon="6.66782">
        <ele>1545.36</ele>
        <time>2016-07-13T10:22:34Z</time>
      </trkpt>
      <trkpt lat="45.40816" lon="6.6679">
        <ele>1538.97</ele>
        <time>2016-07-13T10:22:43Z</time>
      </trkpt>
      <trkpt lat="45.4081" lon="6.66815">
        <ele>1543.32</ele>
        <time>2016-07-13T10:23:01Z</time>
      </trkpt>
      <trkpt lat="45.40797" lon="6.66837">
        <ele>1548.32</ele>
        <time>2016-07-13T10:23:12Z</time>
      </trkpt>
      <trkpt lat="45.40774" lon="6.66841">
        <ele>1554.29</ele>
        <time>2016-07-13T10:23:24Z</time>
      </trkpt>
      <trkpt lat="45.40773" lon="6.66811">
        <ele>1547.48</ele>
        <time>2016-07-13T10:23:48Z</time>
      </trkpt>
    </trkseg>
  </trk>
</gpx>